Time;durP1;ratioP1;P1;durP2;ratioP2;P2;SDS_P1;SDS_P2;PMS_P1;PMS_P2;Temp;Humidity;BMP_temperature;BMP_pressure;BME280_temperature;BME280_humidity;BME280_pressure;Samples;Min_cycle;Max_cycle;Signal;HPM_P1;HPM_P2
2023/12/24 00:00:14;;;;;;;8.53;1.27;;;;;;;17.93;50.13;100814.25;5059618;28;20480;-78
2023/12/24 00:02:39;;;;;;;4.07;1.07;;;;;;;16.96;52.22;100823.25;5035478;28;20055;-79
2023/12/24 00:05:05;;;;;;;4.83;0.60;;;;;;;17.14;51.48;100816.44;5051935;28;20486;-78
2023/12/24 00:07:31;;;;;;;6.43;0.70;;;;;;;17.31;52.28;100789.38;5051236;28;20039;-78
2023/12/24 00:09:56;;;;;;;1.73;0.83;;;;;;;16.70;53.00;100793.34;5071495;28;20029;-79
2023/12/24 00:12:22;;;;;;;5.73;1.10;;;;;;;17.04;53.16;100765.75;5070902;28;20066;-78
2023/12/24 00:14:47;;;;;;;9.47;1.13;;;;;;;17.65;50.56;100766.88;5046751;28;20401;-78
2023/12/24 00:17:13;;;;;;;6.67;1.40;;;;;;;17.90;51.12;100752.66;5036083;28;20036;-78
2023/12/24 00:19:38;;;;;;;8.53;1.00;;;;;;;17.59;50.79;100748.66;5067517;28;20117;-78
2023/12/24 00:22:10;;;;;;;7.00;1.13;;;;;;;17.58;50.76;100739.00;5049802;28;20036;-78
2023/12/24 00:24:35;;;;;;;7.10;1.88;;;;;;;17.58;51.13;100723.13;5067043;28;20027;-78
2023/12/24 00:27:01;;;;;;;2.83;1.00;;;;;;;17.11;52.23;100730.25;5064050;28;20028;-78
2023/12/24 00:29:26;;;;;;;3.00;1.03;;;;;;;17.44;50.93;100737.75;5060011;28;20051;-77
2023/12/24 00:31:51;;;;;;;7.60;0.97;;;;;;;17.06;52.52;100741.91;5050401;28;20092;-77
2023/12/24 00:34:17;;;;;;;4.37;0.67;;;;;;;16.95;52.22;100742.31;5063291;28;20035;-79
2023/12/24 00:36:42;;;;;;;6.23;0.63;;;;;;;16.96;52.00;100750.19;5053428;28;20033;-78
2023/12/24 00:39:07;;;;;;;4.27;1.20;;;;;;;16.73;53.04;100745.75;5049730;28;20028;-78
2023/12/24 00:41:33;;;;;;;5.67;0.77;;;;;;;16.83;52.87;100740.13;5049252;28;20533;-78
2023/12/24 00:43:59;;;;;;;5.50;0.73;;;;;;;17.07;52.35;100723.38;5051422;28;20021;-78
2023/12/24 00:46:24;;;;;;;6.07;0.80;;;;;;;16.78;53.13;100735.03;5046920;28;20045;-78
2023/12/24 00:48:50;;;;;;;3.37;0.80;;;;;;;16.83;53.33;100729.56;5055925;28;20036;-78
2023/12/24 00:51:16;;;;;;;3.13;0.93;;;;;;;16.72;54.83;100733.47;5052478;28;20029;-77
2023/12/24 00:53:41;;;;;;;9.43;1.00;;;;;;;16.90;54.42;100734.59;5051710;28;20032;-78
2023/12/24 00:56:06;;;;;;;3.43;0.90;;;;;;;16.30;58.00;100731.47;5046807;28;20056;-78
2023/12/24 00:58:32;;;;;;;9.17;1.33;;;;;;;16.35;57.53;100732.19;5032411;28;20033;-78
2023/12/24 01:00:57;;;;;;;4.83;1.00;;;;;;;16.59;57.77;100711.09;5071084;28;20055;-78
2023/12/24 01:03:22;;;;;;;7.40;1.03;;;;;;;15.62;61.20;100717.94;5057127;28;20033;-78
2023/12/24 01:05:48;;;;;;;8.83;1.23;;;;;;;16.23;60.14;100708.88;5052008;28;20580;-77
2023/12/24 01:08:14;;;;;;;5.00;0.87;;;;;;;16.38;63.02;100707.47;5050205;28;20047;-77
2023/12/24 01:10:39;;;;;;;8.87;1.03;;;;;;;16.24;60.94;100710.59;5064172;28;20115;-77
2023/12/24 01:13:04;;;;;;;7.73;1.17;;;;;;;16.85;58.92;100703.97;5068962;28;20024;-77
2023/12/24 01:15:30;;;;;;;9.70;1.37;;;;;;;15.89;61.89;100720.59;5058109;28;20473;-76
2023/12/24 01:17:55;;;;;;;8.13;1.20;;;;;;;16.28;63.22;100712.22;5049463;28;20488;-77
2023/12/24 01:20:21;;;;;;;7.83;1.00;;;;;;;16.53;61.56;100706.06;5054200;28;20036;-77
2023/12/24 01:22:46;;;;;;;10.63;1.43;;;;;;;16.77;60.08;100712.19;5050573;28;20473;-78
2023/12/24 01:25:12;;;;;;;11.57;1.00;;;;;;;16.71;60.86;100717.69;5057831;28;20037;-78
2023/12/24 01:27:38;;;;;;;11.60;1.40;;;;;;;16.20;63.33;100719.53;5068666;28;20785;-78
2023/12/24 01:30:04;;;;;;;4.43;0.97;;;;;;;15.43;66.90;100723.78;5065291;28;20070;-78
2023/12/24 01:32:30;;;;;;;6.07;0.93;;;;;;;15.91;69.98;100718.78;5049122;28;20376;-78
2023/12/24 01:34:55;;;;;;;3.23;0.83;;;;;;;16.07;66.83;100703.28;5053049;28;20392;-78
2023/12/24 01:37:21;;;;;;;9.43;1.40;;;;;;;16.63;62.81;100702.16;5062895;28;20036;-79
2023/12/24 01:39:46;;;;;;;4.30;1.07;;;;;;;16.04;66.51;100704.25;5049643;28;20057;-78
2023/12/24 01:42:12;;;;;;;6.93;1.07;;;;;;;16.26;67.28;100699.06;5072590;28;20032;-78
2023/12/24 01:44:37;;;;;;;15.40;1.70;;;;;;;16.05;68.03;100700.69;5055338;28;20528;-78
2023/12/24 01:47:03;;;;;;;8.03;2.17;;;;;;;16.05;67.79;100690.16;5053643;28;20025;-78
2023/12/24 01:49:31;;;;;;;9.83;0.90;;;;;;;16.27;68.70;100678.84;5052685;28;20492;-79
2023/12/24 01:51:57;;;;;;;26.23;1.67;;;;;;;16.57;67.68;100681.28;5070917;28;20035;-79
2023/12/24 01:54:25;;;;;;;9.20;1.40;;;;;;;16.97;64.43;100690.34;5072268;28;20016;-78
2023/12/24 01:56:50;;;;;;;6.03;1.17;;;;;;;16.37;68.33;100674.94;5065407;28;20032;-78
2023/12/24 01:59:17;;;;;;;12.50;1.10;;;;;;;16.47;66.72;100670.19;5055312;28;20028;-78
2023/12/24 02:01:42;;;;;;;11.73;1.67;;;;;;;16.78;67.06;100654.03;5054291;28;20056;-78
2023/12/24 02:04:09;;;;;;;8.73;1.13;;;;;;;16.72;67.48;100656.06;5054024;28;20048;-78
2023/12/24 02:06:34;;;;;;;5.37;1.10;;;;;;;16.32;69.26;100650.53;5064789;28;20024;-78
2023/12/24 02:09:00;;;;;;;5.20;1.43;;;;;;;16.16;70.26;100650.22;5052454;28;20036;-79
2023/12/24 02:11:26;;;;;;;10.53;1.73;;;;;;;16.70;68.81;100635.00;5062062;28;20025;-79
2023/12/24 02:13:51;;;;;;;0.00;0.00;;;;;;;16.37;69.36;100634.53;5054015;28;20024;-78
2023/12/24 02:16:20;;;;;;;0.00;0.00;;;;;;;16.48;70.61;100639.41;5058976;28;20025;-79
2023/12/24 02:18:46;;;;;;;0.00;0.00;;;;;;;16.20;70.33;100650.97;5068441;28;20029;-78
2023/12/24 02:21:12;;;;;;;0.00;0.00;;;;;;;16.66;69.01;100632.56;5053443;28;20099;-78
2023/12/24 02:23:37;;;;;;;0.00;0.00;;;;;;;16.25;71.42;100633.19;5053277;28;20475;-79
2023/12/24 02:26:33;;;;;;;2.80;2.10;;;;;;;16.38;71.77;100638.91;5056156;28;20013;-79
2023/12/24 02:29:25;;;;;;;0.00;0.00;;;;;;;16.53;71.14;100629.53;5065017;28;20589;-79
2023/12/24 02:32:00;;;;;;;0.00;0.00;;;;;;;16.26;72.59;100632.28;5061123;28;20039;-79
2023/12/24 02:34:27;;;;;;;0.00;0.00;;;;;;;16.20;73.87;100638.66;5059981;28;20125;-78
2023/12/24 02:36:53;;;;;;;0.00;0.00;;;;;;;16.31;72.11;100642.66;5042812;28;20035;-78
2023/12/24 02:39:18;;;;;;;0.00;0.00;;;;;;;16.79;70.95;100625.91;5052646;28;20115;-78
2023/12/24 02:41:44;;;;;;;6.03;2.83;;;;;;;16.81;70.45;100631.13;5061185;28;20029;-78
2023/12/24 02:44:10;;;;;;;0.00;0.00;;;;;;;17.66;66.58;100610.03;5056725;28;20021;-78
2023/12/24 02:46:36;;;;;;;0.00;0.00;;;;;;;16.09;72.83;100623.22;5068743;28;20040;-77
2023/12/24 02:49:01;;;;;;;0.00;0.00;;;;;;;16.03;74.77;100602.38;5052372;28;20039;-78
2023/12/24 02:51:30;;;;;;;0.00;0.00;;;;;;;16.50;72.46;100600.63;5058528;28;20067;-78
2023/12/24 02:53:56;;;;;;;0.00;0.00;;;;;;;16.78;72.77;100596.00;5071660;28;20384;-77
2023/12/24 02:56:21;;;;;;;0.00;0.00;;;;;;;16.19;73.39;100586.81;5054780;28;20091;-78
2023/12/24 02:58:46;;;;;;;0.00;0.00;;;;;;;17.18;70.03;100597.97;5052086;28;20484;-78
2023/12/24 03:01:12;;;;;;;1.10;1.10;;;;;;;15.60;78.00;100609.09;5052722;28;20029;-77
2023/12/24 03:03:37;;;;;;;0.00;0.00;;;;;;;15.87;79.56;100585.38;5071974;28;20131;-78
2023/12/24 03:06:03;;;;;;;0.00;0.00;;;;;;;16.66;75.85;100591.19;5071650;28;20070;-78
2023/12/24 03:08:29;;;;;;;0.00;0.00;;;;;;;16.27;77.55;100594.44;5053583;28;20035;-78
2023/12/24 03:10:54;;;;;;;0.00;0.00;;;;;;;16.55;74.19;100582.84;5052041;28;20021;-78
2023/12/24 03:13:20;;;;;;;0.00;0.00;;;;;;;16.85;71.99;100572.00;5067822;28;20028;-78
2023/12/24 03:15:45;;;;;;;0.73;0.73;;;;;;;16.41;76.45;100568.41;5052938;28;20103;-77
2023/12/24 03:18:10;;;;;;;2.00;1.90;;;;;;;17.23;70.92;100570.44;5068362;28;20024;-78
2023/12/24 03:20:36;;;;;;;0.00;0.00;;;;;;;16.99;72.90;100560.91;5054622;28;20051;-78
2023/12/24 03:23:01;;;;;;;0.00;0.00;;;;;;;16.88;70.99;100548.97;5051145;28;20369;-79
2023/12/24 03:25:26;;;;;;;0.00;0.00;;;;;;;16.35;74.06;100560.75;5052057;28;20029;-78
2023/12/24 03:27:52;;;;;;;0.00;0.00;;;;;;;16.84;73.69;100551.78;5064358;28;20040;-78
2023/12/24 03:30:17;;;;;;;0.00;0.00;;;;;;;16.97;73.44;100547.78;5056189;28;20043;-77
2023/12/24 03:32:43;;;;;;;0.00;0.00;;;;;;;16.77;73.60;100554.69;5063418;28;20094;-78
2023/12/24 03:35:08;;;;;;;0.00;0.00;;;;;;;16.87;73.03;100549.03;5070955;28;20055;-80
2023/12/24 03:37:34;;;;;;;0.00;0.00;;;;;;;16.55;74.18;100578.41;5050882;28;20033;-78
2023/12/24 03:39:59;;;;;;;0.00;0.00;;;;;;;16.56;77.20;100563.47;5043228;28;20035;-79
2023/12/24 03:42:24;;;;;;;0.00;0.00;;;;;;;17.08;70.60;100553.47;5057206;28;20050;-78
2023/12/24 03:44:50;;;;;;;0.00;0.00;;;;;;;17.11;71.76;100550.69;5053189;28;20481;-79
2023/12/24 03:47:15;;;;;;;0.00;0.00;;;;;;;17.07;73.95;100543.81;5052342;28;20063;-78
2023/12/24 03:49:40;;;;;;;0.10;0.10;;;;;;;16.35;75.16;100549.31;5044679;28;20079;-78
2023/12/24 03:52:06;;;;;;;0.10;0.10;;;;;;;16.39;77.53;100538.59;5043816;28;20068;-79
2023/12/24 03:54:31;;;;;;;0.00;0.00;;;;;;;16.86;73.41;100539.41;5051244;28;20035;-79
2023/12/24 03:56:57;;;;;;;0.00;0.00;;;;;;;17.22;72.73;100541.47;5067551;28;20488;-79
2023/12/24 03:59:22;;;;;;;0.00;0.00;;;;;;;16.77;73.48;100536.22;5061984;28;20475;-79
2023/12/24 04:01:47;;;;;;;0.00;0.00;;;;;;;16.73;75.29;100545.19;5050024;28;20082;-79
2023/12/24 04:04:13;;;;;;;0.00;0.00;;;;;;;17.85;69.92;100525.50;5050066;28;20028;-78
2023/12/24 04:06:38;;;;;;;0.00;0.00;;;;;;;16.73;74.80;100539.91;5051652;28;20063;-79
2023/12/24 04:09:04;;;;;;;0.00;0.00;;;;;;;17.03;74.98;100544.03;5064562;28;20055;-79
2023/12/24 04:11:29;;;;;;;0.00;0.00;;;;;;;17.33;72.01;100533.94;5071953;28;20431;-78
2023/12/24 04:13:55;;;;;;;0.00;0.00;;;;;;;17.39;70.21;100533.69;5058079;28;20024;-79
2023/12/24 04:16:20;;;;;;;0.00;0.00;;;;;;;16.57;74.05;100546.72;5050363;28;20382;-79
2023/12/24 04:18:45;;;;;;;2.37;1.83;;;;;;;16.91;72.44;100538.34;5058324;28;20448;-79
2023/12/24 04:21:11;;;;;;;0.00;0.00;;;;;;;16.32;77.17;100538.88;5050544;28;20028;-79
2023/12/24 04:23:36;;;;;;;0.00;0.00;;;;;;;17.06;74.31;100536.84;5049790;28;20032;-78
2023/12/24 04:26:02;;;;;;;0.10;0.10;;;;;;;16.18;80.34;100536.78;5051839;28;20431;-79
2023/12/24 04:28:27;;;;;;;0.00;0.00;;;;;;;16.64;79.02;100535.00;5055797;28;20416;-79
2023/12/24 04:30:52;;;;;;;0.00;0.00;;;;;;;16.85;76.11;100527.97;5049509;28;20025;-78
2023/12/24 04:33:18;;;;;;;1.20;1.10;;;;;;;16.38;78.98;100528.13;5071686;28;20024;-79
2023/12/24 04:35:45;;;;;;;0.00;0.00;;;;;;;17.29;75.99;100527.06;5063652;28;20028;-79
2023/12/24 04:38:11;;;;;;;0.00;0.00;;;;;;;17.22;75.33;100530.91;5053289;28;20024;-79
2023/12/24 04:40:36;;;;;;;0.00;0.00;;;;;;;16.87;80.65;100531.44;5066893;28;20394;-78
2023/12/24 04:43:02;;;;;;;0.00;0.00;;;;;;;16.48;79.53;100521.53;5050517;28;20029;-79
2023/12/24 04:45:27;;;;;;;0.00;0.00;;;;;;;17.54;74.64;100518.94;5070209;28;20044;-79
2023/12/24 04:47:55;;;;;;;0.00;0.00;;;;;;;17.38;75.04;100516.13;5061552;28;20075;-79
2023/12/24 04:50:21;;;;;;;0.00;0.00;;;;;;;17.27;73.86;100524.50;5055805;28;20029;-79
2023/12/24 04:52:47;;;;;;;0.00;0.00;;;;;;;16.56;76.39;100523.88;5049621;28;20078;-79
2023/12/24 04:55:12;;;;;;;0.00;0.00;;;;;;;16.69;79.55;100514.56;5067140;28;20040;-79
2023/12/24 04:57:37;;;;;;;0.00;0.00;;;;;;;16.90;77.20;100519.91;5049464;28;20465;-79
2023/12/24 05:00:05;;;;;;;4.07;3.70;;;;;;;17.40;73.17;100514.25;5060137;28;20090;-79
2023/12/24 05:02:31;;;;;;;2.00;1.90;;;;;;;17.27;76.66;100513.09;5050035;28;20036;-79
2023/12/24 05:04:56;;;;;;;0.10;0.10;;;;;;;17.13;73.04;100517.16;5060652;28;20037;-79
2023/12/24 05:07:22;;;;;;;0.00;0.00;;;;;;;17.22;73.02;100515.06;5049876;28;20595;-78
2023/12/24 05:09:47;;;;;;;0.00;0.00;;;;;;;17.15;92.34;100529.47;5050943;28;20488;-79
2023/12/24 05:12:12;;;;;;;0.00;0.00;;;;;;;17.90;75.60;100507.66;5046534;28;20030;-78
2023/12/24 05:14:38;;;;;;;0.00;0.00;;;;;;;17.74;74.67;100504.84;5042830;28;20029;-79
2023/12/24 05:17:03;;;;;;;0.00;0.00;;;;;;;17.38;77.24;100505.56;5054410;28;20057;-79
2023/12/24 05:19:32;;;;;;;0.00;0.00;;;;;;;17.81;75.25;100508.06;5078059;28;20476;-79
2023/12/24 05:21:57;;;;;;;0.00;0.00;;;;;;;17.33;77.52;100491.69;5074502;28;20024;-79
2023/12/24 05:24:23;;;;;;;0.00;0.00;;;;;;;17.22;79.88;100491.28;5067442;28;20120;-80
2023/12/24 05:26:48;;;;;;;0.00;0.00;;;;;;;16.94;77.23;100500.41;5053080;28;20130;-79
2023/12/24 05:29:13;;;;;;;0.27;0.27;;;;;;;17.48;76.61;100492.78;5056567;28;20032;-80
2023/12/24 05:31:40;;;;;;;0.00;0.00;;;;;;;17.36;76.10;100501.25;5053463;28;20083;-78
2023/12/24 05:34:05;;;;;;;0.00;0.00;;;;;;;16.67;77.02;100491.81;5055136;28;20037;-79
2023/12/24 05:36:32;;;;;;;0.00;0.00;;;;;;;16.72;82.47;100501.25;5062514;28;20044;-79
2023/12/24 05:38:58;;;;;;;0.00;0.00;;;;;;;17.04;79.57;100501.72;5054204;28;20024;-79
2023/12/24 05:41:24;;;;;;;0.50;0.50;;;;;;;17.52;76.40;100501.44;5054815;28;20028;-79
2023/12/24 05:43:49;;;;;;;0.00;0.00;;;;;;;17.71;70.95;100491.75;5053768;28;20535;-80
2023/12/24 05:46:15;;;;;;;0.00;0.00;;;;;;;17.80;72.98;100488.72;5069330;28;20120;-80
2023/12/24 05:48:41;;;;;;;0.53;0.53;;;;;;;17.90;73.37;100491.78;5073939;28;20038;-80
2023/12/24 05:51:07;;;;;;;1.00;1.00;;;;;;;17.56;76.68;100492.47;5062757;28;20157;-79
2023/12/24 05:53:32;;;;;;;0.00;0.00;;;;;;;17.32;75.34;100489.09;5052991;28;20474;-79
2023/12/24 05:55:58;;;;;;;0.00;0.00;;;;;;;17.98;74.49;100483.50;5064133;28;20025;-79
2023/12/24 05:58:23;;;;;;;0.00;0.00;;;;;;;17.44;75.35;100484.13;5073643;28;20559;-80
2023/12/24 06:00:48;;;;;;;0.73;0.73;;;;;;;17.25;75.67;100488.50;5072611;28;20064;-79
2023/12/24 06:03:14;;;;;;;0.00;0.00;;;;;;;17.46;74.74;100482.28;5072821;28;20097;-78
2023/12/24 06:05:39;;;;;;;0.00;0.00;;;;;;;17.73;74.16;100476.69;5065900;28;20465;-79
2023/12/24 06:08:06;;;;;;;2.17;1.50;;;;;;;17.34;73.36;100474.91;5069124;28;20064;-79
2023/12/24 06:10:33;;;;;;;0.30;0.30;;;;;;;17.42;75.79;100483.34;5054030;28;20020;-80
2023/12/24 06:12:58;;;;;;;0.00;0.00;;;;;;;17.47;74.73;100464.66;5053544;28;20036;-79
2023/12/24 06:15:24;;;;;;;0.10;0.10;;;;;;;18.18;70.07;100463.22;5055796;28;20020;-79
2023/12/24 06:17:49;;;;;;;0.00;0.00;;;;;;;18.41;67.85;100462.97;5057266;28;20483;-79
2023/12/24 06:20:14;;;;;;;0.00;0.00;;;;;;;18.25;69.28;100469.94;5053392;28;20492;-79
2023/12/24 06:22:40;;;;;;;0.00;0.00;;;;;;;17.39;73.22;100469.41;5072137;28;20050;-79
2023/12/24 06:25:05;;;;;;;0.00;0.00;;;;;;;18.21;69.84;100468.38;5060193;28;20055;-79
2023/12/24 06:27:31;;;;;;;0.47;0.47;;;;;;;17.70;70.61;100478.63;5067903;28;20041;-80
2023/12/24 06:29:56;;;;;;;0.00;0.00;;;;;;;17.97;70.26;100479.19;5054221;28;20033;-79
2023/12/24 06:32:22;;;;;;;0.00;0.00;;;;;;;17.76;71.43;100481.84;5067575;28;20487;-79
2023/12/24 06:34:48;;;;;;;0.27;0.27;;;;;;;17.93;69.27;100474.97;5071483;28;20511;-79
2023/12/24 06:37:14;;;;;;;0.00;0.00;;;;;;;18.00;71.60;100470.22;5065856;28;20028;-78
2023/12/24 06:39:39;;;;;;;0.00;0.00;;;;;;;17.97;70.28;100487.09;5054370;28;20509;-79
2023/12/24 06:42:05;;;;;;;1.73;1.60;;;;;;;17.72;71.67;100485.56;5062568;28;20024;-78
2023/12/24 06:44:30;;;;;;;0.00;0.00;;;;;;;18.37;68.94;100476.41;5051513;28;20105;-79
2023/12/24 06:46:55;;;;;;;0.00;0.00;;;;;;;17.65;71.06;100484.09;5063195;28;20046;-78
2023/12/24 06:49:21;;;;;;;0.43;0.43;;;;;;;17.43;73.81;100471.88;5063952;28;20078;-79
2023/12/24 06:51:46;;;;;;;0.00;0.00;;;;;;;18.53;70.83;100473.88;5059334;28;20028;-79
2023/12/24 06:54:11;;;;;;;0.00;0.00;;;;;;;18.77;66.26;100467.38;5055200;28;20421;-79
2023/12/24 06:56:37;;;;;;;0.00;0.00;;;;;;;18.02;68.60;100469.22;5046475;28;20032;-79
2023/12/24 06:59:03;;;;;;;0.00;0.00;;;;;;;17.93;70.36;100469.69;5068894;28;20043;-79
2023/12/24 07:01:31;;;;;;;0.00;0.00;;;;;;;17.58;72.81;100469.44;5052576;28;20031;-79
2023/12/24 07:03:57;;;;;;;0.00;0.00;;;;;;;17.85;69.82;100467.34;5048943;28;20042;-79
2023/12/24 07:06:22;;;;;;;0.00;0.00;;;;;;;17.52;71.06;100469.75;5041028;28;20035;-79
2023/12/24 07:08:47;;;;;;;1.33;1.23;;;;;;;17.81;72.15;100474.53;5037873;28;20358;-79
2023/12/24 07:11:13;;;;;;;0.97;0.60;;;;;;;17.93;70.94;100469.69;5055146;28;20033;-78
2023/12/24 07:13:38;;;;;;;0.00;0.00;;;;;;;18.44;69.78;100469.91;5073257;28;20027;-79
2023/12/24 07:16:04;;;;;;;0.00;0.00;;;;;;;18.75;66.39;100471.91;5067298;28;20408;-79
2023/12/24 07:18:29;;;;;;;0.00;0.00;;;;;;;18.46;66.69;100473.31;5057695;28;20029;-79
2023/12/24 07:20:55;;;;;;;0.00;0.00;;;;;;;18.55;66.36;100477.31;5051746;28;20017;-79
2023/12/24 07:23:20;;;;;;;3.37;3.07;;;;;;;17.71;72.48;100465.34;5072279;28;20131;-79
2023/12/24 07:25:45;;;;;;;0.00;0.00;;;;;;;18.37;67.74;100458.75;5062232;28;20087;-78
2023/12/24 07:28:11;;;;;;;0.00;0.00;;;;;;;17.94;71.14;100476.66;5069885;28;20035;-75
2023/12/24 07:30:36;;;;;;;0.20;0.20;;;;;;;18.64;68.94;100472.44;5063304;28;20025;-79
2023/12/24 07:33:03;;;;;;;0.00;0.00;;;;;;;18.03;69.38;100470.94;5051342;28;20029;-78
2023/12/24 07:35:31;;;;;;;0.00;0.00;;;;;;;18.05;70.62;100460.28;5052276;28;20043;-79
2023/12/24 07:37:58;;;;;;;0.00;0.00;;;;;;;18.36;67.69;100457.03;5058450;28;20037;-79
2023/12/24 07:40:23;;;;;;;0.00;0.00;;;;;;;17.65;70.96;100455.03;5051960;28;20033;-79
2023/12/24 07:42:48;;;;;;;0.00;0.00;;;;;;;18.01;70.43;100469.28;5051390;28;20043;-79
2023/12/24 07:45:14;;;;;;;0.00;0.00;;;;;;;18.23;70.71;100472.66;5052065;28;20049;-78
2023/12/24 07:47:40;;;;;;;2.63;1.10;;;;;;;18.14;69.89;100463.34;5052265;28;20040;-79
2023/12/24 07:50:07;;;;;;;0.00;0.00;;;;;;;18.54;67.64;100459.72;5031601;28;20036;-79
2023/12/24 07:52:32;;;;;;;0.93;0.43;;;;;;;18.38;69.36;100459.59;5051530;28;20064;-79
2023/12/24 07:54:58;;;;;;;0.00;0.00;;;;;;;18.50;68.67;100459.00;5047107;28;20064;-79
2023/12/24 07:57:23;;;;;;;0.37;0.37;;;;;;;18.08;72.23;100455.72;5047065;28;20064;-78
2023/12/24 07:59:48;;;;;;;0.00;0.00;;;;;;;17.95;72.08;100442.19;5066614;28;20492;-78
2023/12/24 08:02:14;;;;;;;0.00;0.00;;;;;;;17.80;75.29;100449.06;5050669;28;20139;-78
2023/12/24 08:04:40;;;;;;;0.00;0.00;;;;;;;17.91;72.95;100460.91;5051670;28;20029;-78
2023/12/24 08:07:05;;;;;;;0.00;0.00;;;;;;;18.11;75.01;100458.22;5055397;28;20028;-78
2023/12/24 08:09:30;;;;;;;0.00;0.00;;;;;;;18.08;73.27;100458.38;5070928;28;20029;-78
2023/12/24 08:11:56;;;;;;;0.00;0.00;;;;;;;18.09;73.45;100460.09;5053644;28;20085;-78
2023/12/24 08:14:21;;;;;;;0.30;0.30;;;;;;;18.10;72.11;100461.78;5058265;28;20476;-77
2023/12/24 08:16:46;;;;;;;0.00;0.00;;;;;;;18.12;71.74;100454.66;5046374;28;20548;-78
2023/12/24 08:19:12;;;;;;;0.00;0.00;;;;;;;17.78;74.23;100458.84;5060354;28;20579;-78
2023/12/24 08:21:37;;;;;;;0.00;0.00;;;;;;;17.92;73.38;100452.94;5050269;28;20037;-78
2023/12/24 08:24:03;;;;;;;0.00;0.00;;;;;;;18.09;72.42;100465.38;5067797;28;20062;-78
2023/12/24 08:26:31;;;;;;;0.00;0.00;;;;;;;18.24;71.13;100460.28;5071673;28;20411;-77
2023/12/24 08:28:56;;;;;;;0.00;0.00;;;;;;;18.58;69.00;100472.72;5055287;28;20039;-77
2023/12/24 08:31:22;;;;;;;0.00;0.00;;;;;;;18.45;68.65;100474.25;5051655;28;20021;-78
2023/12/24 08:33:47;;;;;;;1.80;0.57;;;;;;;18.03;71.41;100475.38;5072458;28;20448;-78
2023/12/24 08:36:12;;;;;;;0.00;0.00;;;;;;;17.90;73.79;100482.97;5046024;28;20084;-78
2023/12/24 08:38:38;;;;;;;0.00;0.00;;;;;;;18.78;67.64;100484.09;5056510;28;20377;-78
2023/12/24 08:41:03;;;;;;;0.00;0.00;;;;;;;17.85;72.94;100491.13;5071786;28;20062;-78
2023/12/24 08:43:32;;;;;;;0.00;0.00;;;;;;;18.67;69.67;100482.03;5071987;28;20472;-78
2023/12/24 08:45:59;;;;;;;0.37;0.37;;;;;;;17.45;76.31;100470.00;5071519;28;20044;-78
2023/12/24 08:48:25;;;;;;;0.00;0.00;;;;;;;17.99;73.87;100474.66;5056261;28;20498;-78
2023/12/24 08:50:50;;;;;;;0.47;0.27;;;;;;;17.75;75.51;100461.63;5068955;28;20028;-77
2023/12/24 08:53:15;;;;;;;0.00;0.00;;;;;;;18.42;70.30;100470.00;5070269;28;20388;-78
2023/12/24 08:55:41;;;;;;;0.00;0.00;;;;;;;18.02;73.36;100479.78;5046624;28;20424;-78
2023/12/24 08:58:07;;;;;;;0.00;0.00;;;;;;;18.33;72.44;100459.84;5032396;28;20033;-78
2023/12/24 09:00:33;;;;;;;0.40;0.40;;;;;;;18.36;72.31;100467.63;5015337;28;20045;-78
2023/12/24 09:02:58;;;;;;;0.00;0.00;;;;;;;18.55;70.90;100450.88;5047960;28;20032;-78
2023/12/24 09:05:24;;;;;;;0.00;0.00;;;;;;;18.31;72.85;100424.66;5056029;28;20022;-79
2023/12/24 09:07:49;;;;;;;0.00;0.00;;;;;;;17.95;72.97;100438.72;5047100;28;20024;-79
2023/12/24 09:10:15;;;;;;;0.00;0.00;;;;;;;18.27;74.29;100446.91;5064928;28;20028;-78
2023/12/24 09:12:40;;;;;;;0.00;0.00;;;;;;;18.52;70.83;100443.94;5069047;28;20103;-78
2023/12/24 09:15:06;;;;;;;0.00;0.00;;;;;;;17.61;74.95;100442.88;5059333;28;20036;-77
2023/12/24 09:17:31;;;;;;;0.00;0.00;;;;;;;18.28;74.10;100453.91;5044477;28;20062;-80
2023/12/24 09:19:56;;;;;;;3.13;2.00;;;;;;;18.52;70.65;100436.00;5048219;28;20037;-78
2023/12/24 09:22:22;;;;;;;0.00;0.00;;;;;;;18.22;70.45;100443.63;5049763;28;20033;-78
2023/12/24 09:24:47;;;;;;;0.00;0.00;;;;;;;18.51;71.20;100433.41;5054721;28;20259;-78
2023/12/24 09:27:13;;;;;;;1.33;1.27;;;;;;;18.41;69.51;100440.94;5052722;28;20531;-78
2023/12/24 09:29:39;;;;;;;0.00;0.00;;;;;;;18.70;69.30;100435.97;5053347;28;20033;-78
2023/12/24 09:32:04;;;;;;;0.00;0.00;;;;;;;17.44;76.42;100428.66;5053745;28;20468;-78
2023/12/24 09:34:30;;;;;;;0.00;0.00;;;;;;;18.19;71.48;100428.78;5050510;28;20523;-78
2023/12/24 09:36:55;;;;;;;0.43;0.43;;;;;;;18.14;73.09;100413.09;5066993;28;20025;-78
2023/12/24 09:39:21;;;;;;;0.53;0.53;;;;;;;19.27;66.92;100411.91;5050650;28;20029;-79
2023/12/24 09:41:46;;;;;;;0.00;0.00;;;;;;;18.11;72.32;100442.34;5054008;28;20033;-78
2023/12/24 09:44:11;;;;;;;0.00;0.00;;;;;;;18.32;72.32;100426.38;5050356;28;20480;-77
2023/12/24 09:46:37;;;;;;;0.35;0.35;;;;;;;18.92;68.38;100427.88;5048929;28;20488;-77
2023/12/24 09:49:02;;;;;;;0.00;0.00;;;;;;;19.00;67.46;100423.03;5049641;28;20036;-77
2023/12/24 09:51:29;;;;;;;0.00;0.00;;;;;;;18.44;68.64;100435.50;5059386;28;20036;-77
2023/12/24 09:53:55;;;;;;;0.40;0.40;;;;;;;18.40;70.05;100421.56;5048933;28;20021;-77
2023/12/24 09:56:21;;;;;;;0.22;0.22;;;;;;;18.30;70.28;100420.31;5049997;28;20036;-78
2023/12/24 09:58:47;;;;;;;0.00;0.00;;;;;;;18.10;68.96;100443.28;5049293;28;20415;-77
2023/12/24 10:01:12;;;;;;;0.30;0.30;;;;;;;18.59;68.76;100449.78;5056177;28;20029;-77
2023/12/24 10:03:38;;;;;;;0.00;0.00;;;;;;;18.62;69.77;100453.09;5048728;28;20033;-78
2023/12/24 10:06:07;;;;;;;0.10;0.10;;;;;;;18.01;70.22;100456.94;5060572;28;20059;-77
2023/12/24 10:08:33;;;;;;;0.20;0.20;;;;;;;18.10;70.43;100451.22;5052522;28;20488;-78
2023/12/24 10:11:17;;;;;;;1.60;0.83;;;;;;;17.52;73.99;100453.88;5053635;28;20033;-77
2023/12/24 10:13:43;;;;;;;0.10;0.10;;;;;;;19.01;68.47;100443.25;5052965;28;20392;-77
2023/12/24 10:16:09;;;;;;;0.43;0.43;;;;;;;18.53;69.51;100442.97;5050888;28;20041;-77
2023/12/24 10:18:35;;;;;;;0.50;0.47;;;;;;;18.37;69.23;100445.53;5052176;28;20029;-76
2023/12/24 10:21:10;;;;;;;0.00;0.00;;;;;;;18.35;71.62;100443.88;5063623;28;20399;-78
2023/12/24 10:23:36;;;;;;;0.00;0.00;;;;;;;18.21;71.56;100439.28;5057160;28;20040;-78
2023/12/24 10:26:04;;;;;;;0.67;0.63;;;;;;;19.57;64.86;100448.31;5047053;28;20025;-78
2023/12/24 10:28:30;;;;;;;0.00;0.00;;;;;;;18.29;71.14;100434.47;5046965;28;20040;-79
2023/12/24 10:31:07;;;;;;;0.00;0.00;;;;;;;18.82;69.07;100430.94;5017983;28;20072;-78
2023/12/24 10:33:37;;;;;;;0.00;0.00;;;;;;;18.08;74.80;100439.84;5045653;28;20047;-78
2023/12/24 10:36:03;;;;;;;0.00;0.00;;;;;;;18.32;73.45;100434.31;5044801;28;20037;-84
2023/12/24 10:38:29;;;;;;;0.10;0.10;;;;;;;18.20;73.14;100429.63;5044682;28;20492;-84
2023/12/24 10:40:55;;;;;;;0.00;0.00;;;;;;;18.00;73.35;100427.91;5055201;28;20488;-84
2023/12/24 10:43:20;;;;;;;0.00;0.00;;;;;;;17.97;76.24;100450.09;5046366;28;20028;-84
2023/12/24 10:45:45;;;;;;;0.00;0.00;;;;;;;17.97;76.67;100434.22;5039819;28;20079;-84
2023/12/24 10:48:11;;;;;;;1.23;1.17;;;;;;;17.90;75.29;100423.06;5045752;28;20021;-83
2023/12/24 10:50:37;;;;;;;0.00;0.00;;;;;;;19.14;69.13;100419.66;5048322;28;20539;-83
2023/12/24 10:53:03;;;;;;;0.67;0.67;;;;;;;18.57;72.38;100438.41;5054080;28;20033;-83
2023/12/24 10:55:35;;;;;;;0.00;0.00;;;;;;;18.70;71.48;100417.44;5052454;28;20032;-83
2023/12/24 10:58:27;;;;;;;0.00;0.00;;;;;;;18.51;71.52;100409.59;5052571;28;20488;-81
2023/12/24 11:00:53;;;;;;;0.00;0.00;;;;;;;18.93;68.66;100388.06;5044445;28;20036;-83
2023/12/24 11:03:44;;;;;;;0.00;0.00;;;;;;;19.10;69.21;100384.50;5062899;28;20086;-83
2023/12/24 11:06:09;;;;;;;0.10;0.10;;;;;;;18.32;73.58;100394.63;5053610;28;20493;-82
2023/12/24 11:08:35;;;;;;;0.00;0.00;;;;;;;17.98;76.21;100388.31;5052814;28;20072;-83
2023/12/24 11:11:06;;;;;;;0.10;0.10;;;;;;;18.48;72.78;100400.88;5052416;28;20035;-83
2023/12/24 11:13:32;;;;;;;10.60;1.40;;;;;;;18.00;76.49;100397.06;5071186;28;20068;-83
2023/12/24 11:15:58;;;;;;;0.00;0.00;;;;;;;17.28;77.58;100399.44;5053590;28;20480;-84
2023/12/24 11:18:46;;;;;;;2.60;1.43;;;;;;;18.59;75.77;100389.75;5068501;28;20036;-84